createdAt,value
2022-09-15T00:02:35.000Z,98399.42
2022-09-15T00:07:34.000Z,98399.42
2022-09-15T00:12:34.000Z,98405.56
2022-09-15T00:17:35.000Z,98405.46
2022-09-15T00:22:35.000Z,98401.02
2022-09-15T00:27:34.000Z,98401.73
2022-09-15T00:37:34.000Z,98395.69
2022-09-15T00:42:35.000Z,98393.33
2022-09-15T00:47:35.000Z,98379.41
2022-09-15T00:52:35.000Z,98388.16
2022-09-15T00:57:34.000Z,98384.6
2022-09-15T01:02:35.000Z,98378
2022-09-15T01:07:34.000Z,98381.82
2022-09-15T01:12:34.000Z,98381.82
2022-09-15T01:17:35.000Z,98385.36
2022-09-15T01:27:52.000Z,98383.37
2022-09-15T01:32:35.000Z,98382.69
2022-09-15T01:37:34.000Z,98384.34
2022-09-15T01:42:35.000Z,98382.34
2022-09-15T01:47:34.000Z,98385.74
2022-09-15T01:52:35.000Z,98380.89
2022-09-15T01:57:34.000Z,98373.86
2022-09-15T02:02:34.000Z,98379.12
2022-09-15T02:07:34.000Z,98376.06
2022-09-15T02:12:34.000Z,98376.06
2022-09-15T02:17:35.000Z,98380.02
2022-09-15T02:22:35.000Z,98381.12
2022-09-15T02:27:35.000Z,98380.03
2022-09-15T02:32:35.000Z,98382.21
2022-09-15T02:37:34.000Z,98375.28
2022-09-15T02:42:35.000Z,98373.32
2022-09-15T02:47:35.000Z,98375.05
2022-09-15T02:52:34.000Z,98374.87
2022-09-15T02:57:34.000Z,98373.76
2022-09-15T03:02:35.000Z,98371.27
2022-09-15T03:07:34.000Z,98376.33
2022-09-15T03:12:35.000Z,98376.95
2022-09-15T03:17:35.000Z,98379.04
2022-09-15T03:22:35.000Z,98379.39
2022-09-15T03:27:34.000Z,98381.93
2022-09-15T03:32:34.000Z,98381.93
2022-09-15T03:37:34.000Z,98371.34
2022-09-15T03:42:34.000Z,98385.39
2022-09-15T03:47:34.000Z,98376.38
2022-09-15T03:52:35.000Z,98387.72
2022-09-15T03:57:35.000Z,98381.02
2022-09-15T04:02:35.000Z,98382.64
2022-09-15T04:07:35.000Z,98381.31
2022-09-15T04:12:35.000Z,98362.27
2022-09-15T04:17:34.000Z,98377.03
2022-09-15T04:22:35.000Z,98380.68
2022-09-15T04:27:35.000Z,98380.88
2022-09-15T04:32:34.000Z,98384.3
2022-09-15T04:37:34.000Z,98384.23
2022-09-15T04:42:34.000Z,98376.45
2022-09-15T04:47:34.000Z,98376.45
2022-09-15T04:52:34.000Z,98378.12
2022-09-15T04:57:34.000Z,98374.48
2022-09-15T05:02:34.000Z,98363.6
2022-09-15T05:07:34.000Z,98370.88
2022-09-15T05:12:34.000Z,98364.98
2022-09-15T05:17:36.000Z,98370.38
2022-09-15T05:22:35.000Z,98363.89
2022-09-15T05:27:35.000Z,98358.96
2022-09-15T05:32:35.000Z,98363.13
2022-09-15T05:37:35.000Z,98365.86
2022-09-15T05:42:34.000Z,98370.42
2022-09-15T05:47:35.000Z,98368.2
2022-09-15T05:52:35.000Z,98367.35
2022-09-15T05:57:35.000Z,98370.85
2022-09-15T06:02:35.000Z,98370.85
2022-09-15T06:07:35.000Z,98365.15
2022-09-15T06:12:34.000Z,98379.8
2022-09-15T06:17:34.000Z,98378.35
2022-09-15T06:22:35.000Z,98387.16
2022-09-15T06:27:35.000Z,98381.84
2022-09-15T06:32:35.000Z,98371.97
2022-09-15T06:37:34.000Z,98378.7
2022-09-15T06:42:34.000Z,98379.89
2022-09-15T06:47:35.000Z,98381.19
2022-09-15T06:52:35.000Z,98370.77
2022-09-15T06:57:34.000Z,98377.38
2022-09-15T07:02:35.000Z,98378.05
2022-09-15T07:07:35.000Z,98389.52
2022-09-15T07:12:35.000Z,98389.52
2022-09-15T07:17:35.000Z,98394.58
2022-09-15T07:22:35.000Z,98382.37
2022-09-15T07:27:35.000Z,98387.4
2022-09-15T07:32:35.000Z,98388.61
2022-09-15T07:37:34.000Z,98395.87
2022-09-15T07:42:34.000Z,98382.53
2022-09-15T07:47:34.000Z,98401.21
2022-09-15T07:52:35.000Z,98393.11
2022-09-15T07:57:35.000Z,98398.56
2022-09-15T08:02:35.000Z,98384.63
2022-09-15T08:12:34.000Z,98399.91
2022-09-15T08:17:34.000Z,98399.6
2022-09-15T08:22:35.000Z,98399.06
2022-09-15T08:27:35.000Z,98398.93
2022-09-15T08:32:34.000Z,98391.35
2022-09-15T08:37:35.000Z,98388.93
2022-09-15T08:42:34.000Z,98396.33
2022-09-15T08:47:34.000Z,98392.58
2022-09-15T08:52:35.000Z,98392.35
2022-09-15T08:57:35.000Z,98389.45
2022-09-15T09:02:34.000Z,98396.89
2022-09-15T09:07:34.000Z,98390.81
2022-09-15T09:12:34.000Z,98390.81
2022-09-15T09:17:35.000Z,98401.14
2022-09-15T09:22:35.000Z,98392.1
2022-09-15T09:27:35.000Z,98398.59
2022-09-15T09:32:35.000Z,98386.2
2022-09-15T09:37:35.000Z,98398.31
2022-09-15T09:42:35.000Z,98394.98
2022-09-15T09:47:35.000Z,98390.89
2022-09-15T09:52:35.000Z,98394.67
2022-09-15T09:57:35.000Z,98401.45
2022-09-15T10:07:34.000Z,98409.45
2022-09-15T10:12:35.000Z,98402.76
2022-09-15T10:17:35.000Z,98402.76
2022-09-15T10:22:34.000Z,98411.82
2022-09-15T10:27:35.000Z,98416.37
2022-09-15T10:32:35.000Z,98420.02
2022-09-15T10:37:35.000Z,98415.12
2022-09-15T10:42:35.000Z,98427.9
2022-09-15T10:47:34.000Z,98432.14
2022-09-15T10:52:34.000Z,98433.81
2022-09-15T10:57:34.000Z,98437.71
2022-09-15T11:02:35.000Z,98438.02
2022-09-15T11:07:34.000Z,98437.34
2022-09-15T11:12:39.000Z,98438.33
2022-09-15T11:17:35.000Z,98439.75
2022-09-15T11:22:35.000Z,98451.81
2022-09-15T11:27:35.000Z,98450.24
2022-09-15T11:32:35.000Z,98450.24
2022-09-15T11:37:35.000Z,98462.48
2022-09-15T11:42:35.000Z,98461
2022-09-15T11:47:35.000Z,98456.35
2022-09-15T11:52:34.000Z,98464.88
2022-09-15T11:57:34.000Z,98457.93
2022-09-15T12:02:35.000Z,98467.55
2022-09-15T12:07:34.000Z,98465.31
2022-09-15T12:12:40.000Z,98476.36
2022-09-15T12:17:34.000Z,98478.21
2022-09-15T12:22:35.000Z,98478.17
2022-09-15T12:27:35.000Z,98471.49
2022-09-15T12:32:35.000Z,98480.08
2022-09-15T12:37:35.000Z,98484.41
2022-09-15T12:42:35.000Z,98478.03
2022-09-15T12:47:35.000Z,98478.03
2022-09-15T12:52:35.000Z,98489.27
2022-09-15T12:57:35.000Z,98488.76
2022-09-15T13:02:35.000Z,98495.12
2022-09-15T13:07:35.000Z,98496.34
2022-09-15T13:12:34.000Z,98497.19
2022-09-15T13:17:34.000Z,98483.58
2022-09-15T13:22:34.000Z,98502.2
2022-09-15T13:27:34.000Z,98505.3
2022-09-15T13:32:35.000Z,98502.81
2022-09-15T13:38:05.000Z,98513.01
2022-09-15T13:42:35.000Z,98515.49
2022-09-15T13:47:34.000Z,98508.08
2022-09-15T13:52:34.000Z,98534.4
2022-09-15T13:59:07.000Z,98537.34
2022-09-15T14:07:35.000Z,98548.84
2022-09-15T14:12:35.000Z,98542.07
2022-09-15T14:22:35.000Z,98554.02
2022-09-15T14:27:35.000Z,98556.22
2022-09-15T14:32:35.000Z,98556.22
2022-09-15T14:37:34.000Z,98564.08
2022-09-15T14:42:35.000Z,98560.75
2022-09-15T14:47:34.000Z,98566.1
2022-09-15T14:52:34.000Z,98564.06
2022-09-15T14:57:40.000Z,98572.53
2022-09-15T15:02:35.000Z,98574.5
2022-09-15T15:07:34.000Z,98581.03
2022-09-15T15:12:34.000Z,98571.16
2022-09-15T15:17:35.000Z,98576.23
2022-09-15T15:22:34.000Z,98571.54
2022-09-15T15:27:34.000Z,98570.82
2022-09-15T15:32:35.000Z,98569.44
2022-09-15T15:37:35.000Z,98572.7
2022-09-15T15:42:35.000Z,98571.09
2022-09-15T15:47:35.000Z,98571.09
2022-09-15T15:52:35.000Z,98572.04
2022-09-15T16:02:35.000Z,98577.08
2022-09-15T16:07:38.000Z,98575.79
2022-09-15T16:12:35.000Z,98574.53
2022-09-15T16:17:34.000Z,98581.64
2022-09-15T16:22:35.000Z,98581.73
2022-09-15T16:27:34.000Z,98571.64
2022-09-15T16:32:35.000Z,98577.57
2022-09-15T16:37:34.000Z,98577.57
2022-09-15T16:42:34.000Z,98576.71
2022-09-15T16:47:34.000Z,98580.3
2022-09-15T16:52:35.000Z,98582.37
2022-09-15T16:57:35.000Z,98570.44
2022-09-15T17:02:35.000Z,98570.65
2022-09-15T17:07:35.000Z,98575.81
2022-09-15T17:12:34.000Z,98566.6
2022-09-15T17:22:34.000Z,98587.3
2022-09-15T17:27:35.000Z,98595.76
2022-09-15T17:32:35.000Z,98598.03
2022-09-15T17:37:34.000Z,98597.75
2022-09-15T17:42:35.000Z,98600.3
2022-09-15T17:47:35.000Z,98599.39
2022-09-15T17:52:35.000Z,98592.48
2022-09-15T17:57:34.000Z,98593.28
2022-09-15T18:02:34.000Z,98590.71
2022-09-15T18:07:34.000Z,98589.03
2022-09-15T18:12:34.000Z,98579.31
2022-09-15T18:17:35.000Z,98579.31
2022-09-15T18:22:35.000Z,98591.73
2022-09-15T18:27:35.000Z,98584.2
2022-09-15T18:32:35.000Z,98590.05
2022-09-15T18:37:35.000Z,98594.29
2022-09-15T18:42:39.000Z,98576.62
2022-09-15T18:47:34.000Z,98596.52
2022-09-15T18:52:35.000Z,98598.75
2022-09-15T18:57:35.000Z,98593.21
2022-09-15T19:02:35.000Z,98586.07
2022-09-15T19:07:38.000Z,98577.89
2022-09-15T19:12:34.000Z,98579.22
2022-09-15T19:17:35.000Z,98573.93
2022-09-15T19:22:34.000Z,98573.65
2022-09-15T19:27:35.000Z,98585.32
2022-09-15T19:32:35.000Z,98585.32
2022-09-15T19:37:35.000Z,98586.7
2022-09-15T19:42:35.000Z,98588.39
2022-09-15T19:47:34.000Z,98589.44
2022-09-15T19:52:34.000Z,98588.86
2022-09-15T19:57:34.000Z,98581.04
2022-09-15T20:02:35.000Z,98578.45
2022-09-15T20:07:34.000Z,98586.65
2022-09-15T20:12:35.000Z,98589.34
2022-09-15T20:17:34.000Z,98590.43
2022-09-15T20:22:34.000Z,98593.9
2022-09-15T20:27:34.000Z,98595.6
2022-09-15T20:32:38.000Z,98588.07
2022-09-15T20:37:35.000Z,98593.24
2022-09-15T20:42:35.000Z,98588.6
2022-09-15T20:47:35.000Z,98588.6
2022-09-15T20:52:39.000Z,98576.14
2022-09-15T20:57:34.000Z,98582.35
2022-09-15T21:02:35.000Z,98573.93
2022-09-15T21:07:34.000Z,98578.58
2022-09-15T21:12:34.000Z,98583.36
2022-09-15T21:17:35.000Z,98588.61
2022-09-15T21:22:35.000Z,98577.98
2022-09-15T21:27:35.000Z,98575.58
2022-09-15T21:32:35.000Z,98575.04
2022-09-15T21:37:35.000Z,98571.68
2022-09-15T21:42:34.000Z,98563.96
2022-09-15T21:47:35.000Z,98558.57
2022-09-15T21:52:34.000Z,98569.48
2022-09-15T21:57:35.000Z,98569.48
2022-09-15T22:02:35.000Z,98568.56
2022-09-15T22:07:34.000Z,98559.16
2022-09-15T22:12:34.000Z,98567.48
2022-09-15T22:17:35.000Z,98559.26
2022-09-15T22:22:35.000Z,98561.69
2022-09-15T22:27:35.000Z,98555.04
2022-09-15T22:32:35.000Z,98558.35
2022-09-15T22:37:34.000Z,98558.86
2022-09-15T22:42:34.000Z,98556.23
2022-09-15T22:47:35.000Z,98539.06
2022-09-15T22:52:35.000Z,98533.41
2022-09-15T22:57:35.000Z,98544.13
2022-09-15T23:02:35.000Z,98539.01
2022-09-15T23:07:34.000Z,98527.29
2022-09-15T23:12:35.000Z,98527.29
2022-09-15T23:17:35.000Z,98555.91
2022-09-15T23:22:34.000Z,98546.2
2022-09-15T23:27:34.000Z,98549.87
2022-09-15T23:32:35.000Z,98537.33
2022-09-15T23:37:34.000Z,98531.13
2022-09-15T23:42:34.000Z,98544.9
2022-09-15T23:47:34.000Z,98516.73
2022-09-15T23:52:34.000Z,98541.69
